Time;durP1;ratioP1;P1;durP2;ratioP2;P2;SDS_P1;SDS_P2;PMS_P1;PMS_P2;Temp;Humidity;BMP_temperature;BMP_pressure;BME280_temperature;BME280_humidity;BME280_pressure;Samples;Min_cycle;Max_cycle;Signal;HPM_P1;HPM_P2
2024/01/30 00:05:27;;;;;;;5.90;4.00;;;;;;;4.09;88.66;100509.34;7274905;39;20582;31
2024/01/30 00:16:09;;;;;;;5.27;3.47;;;;;;;3.88;88.37;100505.31;7290804;40;20743;31
2024/01/30 00:21:43;;;;;;;5.85;3.65;;;;;;;3.83;88.65;100507.41;7305424;39;20236;31
2024/01/30 00:27:05;;;;;;;4.93;3.70;;;;;;;3.84;88.75;100522.44;7320884;39;20255;31
2024/01/30 00:32:41;;;;;;;6.10;3.90;;;;;;;3.75;88.75;100531.00;7256459;40;20311;31
2024/01/30 00:38:17;;;;;;;6.37;3.75;;;;;;;3.75;88.36;100531.84;7198429;40;20243;31
2024/01/30 00:43:52;;;;;;;5.13;3.90;;;;;;;3.71;89.02;100532.13;7197663;40;20344;31
2024/01/30 00:49:29;;;;;;;6.45;4.35;;;;;;;3.68;87.87;100534.97;7217513;40;20242;31
2024/01/30 00:55:05;;;;;;;6.33;4.30;;;;;;;3.64;89.44;100523.66;7161718;40;20239;31
2024/01/30 01:00:40;;;;;;;5.93;4.20;;;;;;;3.61;88.72;100522.00;7231815;40;20283;31
2024/01/30 01:06:18;;;;;;;5.33;3.97;;;;;;;3.54;88.66;100520.66;7201532;40;20328;31
2024/01/30 01:11:54;;;;;;;6.00;4.20;;;;;;;3.48;89.22;100521.00;7262145;39;20284;31
2024/01/30 01:17:30;;;;;;;5.63;4.13;;;;;;;3.49;88.92;100517.41;7289129;39;20378;31
2024/01/30 01:23:07;;;;;;;9.10;4.50;;;;;;;3.52;88.74;100513.69;7268955;39;20259;31
2024/01/30 01:28:27;;;;;;;7.90;4.43;;;;;;;3.54;89.06;100515.34;7310123;39;20341;31
2024/01/30 01:33:47;;;;;;;5.10;4.30;;;;;;;3.54;89.65;100514.47;7269299;40;20254;31
2024/01/30 01:39:23;;;;;;;6.40;4.30;;;;;;;3.59;88.51;100517.72;7281713;39;20395;31
2024/01/30 01:44:43;;;;;;;5.93;4.30;;;;;;;3.56;88.56;100523.22;7296351;39;20378;31
2024/01/30 01:50:18;;;;;;;6.60;4.50;;;;;;;3.48;88.35;100512.16;7315999;39;20259;31
2024/01/30 01:55:54;;;;;;;6.55;4.25;;;;;;;3.40;89.57;100509.06;7294596;39;20285;31
2024/01/30 02:01:29;;;;;;;6.27;4.37;;;;;;;3.28;89.50;100513.31;7293038;39;20238;31
2024/01/30 02:07:04;;;;;;;5.30;4.60;;;;;;;3.31;89.39;100504.28;7306712;39;20244;31
2024/01/30 02:12:40;;;;;;;7.15;4.75;;;;;;;3.21;90.61;100508.41;7261451;40;20251;31
2024/01/30 02:18:00;;;;;;;5.87;4.63;;;;;;;3.21;90.31;100503.94;7235957;40;20228;31
2024/01/30 02:23:34;;;;;;;6.05;5.20;;;;;;;3.17;90.08;100500.59;7244587;40;20241;31
2024/01/30 02:28:54;;;;;;;6.53;4.57;;;;;;;3.26;89.79;100504.53;7216446;40;20403;31
2024/01/30 02:34:30;;;;;;;5.90;4.45;;;;;;;3.25;90.02;100504.66;7290449;39;20457;31
2024/01/30 02:40:04;;;;;;;10.20;3.93;;;;;;;3.22;88.70;100508.34;7294668;39;20223;31
2024/01/30 02:45:24;;;;;;;6.10;4.50;;;;;;;3.22;88.75;100505.66;7282270;39;20244;31
2024/01/30 02:51:00;;;;;;;7.10;4.70;;;;;;;3.15;90.19;100504.31;7298703;39;20259;31
2024/01/30 02:56:36;;;;;;;5.23;4.13;;;;;;;3.13;89.32;100506.19;7274217;40;20242;31
2024/01/30 03:02:49;;;;;;;6.13;4.80;;;;;;;3.22;89.90;100507.47;7302902;39;20339;31
2024/01/30 03:08:09;;;;;;;7.67;5.13;;;;;;;3.26;90.18;100514.34;7298590;39;20256;31
2024/01/30 03:13:46;;;;;;;8.00;5.83;;;;;;;3.23;90.48;100504.72;7311122;39;20299;31
2024/01/30 03:19:21;;;;;;;7.50;5.80;;;;;;;3.24;91.33;100502.94;7225516;40;20243;31
2024/01/30 03:24:41;;;;;;;10.00;5.97;;;;;;;3.32;90.68;100512.19;7242727;40;20264;31
2024/01/30 03:30:16;;;;;;;6.50;5.30;;;;;;;3.29;90.84;100512.34;7272363;40;20259;31
2024/01/30 03:35:36;;;;;;;8.33;5.37;;;;;;;3.31;90.36;100510.47;7248874;40;20238;31
2024/01/30 03:40:54;;;;;;;7.77;5.27;;;;;;;3.30;90.22;100511.41;7307204;39;20252;31
2024/01/30 03:46:30;;;;;;;8.07;5.77;;;;;;;3.27;90.80;100503.59;7322538;39;20241;31
2024/01/30 03:52:05;;;;;;;7.30;5.90;;;;;;;3.22;90.72;100515.47;7292539;39;20249;31
2024/01/30 03:57:22;;;;;;;6.60;5.57;;;;;;;3.21;90.31;100511.94;7274595;39;21368;31
2024/01/30 04:02:59;;;;;;;7.80;6.00;;;;;;;3.24;90.12;100503.78;7277081;39;20801;31
2024/01/30 04:08:19;;;;;;;8.60;6.10;;;;;;;3.25;90.92;100510.81;7229333;40;20242;31
2024/01/30 04:13:37;;;;;;;11.55;6.35;;;;;;;3.28;91.49;100513.31;7057398;40;21282;31
2024/01/30 04:19:09;;;;;;;9.55;6.85;;;;;;;3.29;90.45;100500.88;7336036;39;20697;31
2024/01/30 04:24:44;;;;;;;8.75;6.50;;;;;;;3.36;91.69;100511.06;7333244;39;20833;31
2024/01/30 04:35:24;;;;;;;9.60;6.63;;;;;;;3.45;92.00;100502.53;7299774;39;21308;31
2024/01/30 04:40:45;;;;;;;9.83;7.80;;;;;;;3.52;91.74;100508.34;7291003;39;21269;31
2024/01/30 04:46:06;;;;;;;10.50;8.03;;;;;;;3.54;92.35;100510.00;7318704;39;20340;31
2024/01/30 04:51:39;;;;;;;9.43;7.50;;;;;;;3.53;92.37;100505.63;7338875;39;20576;31
2024/01/30 04:56:56;;;;;;;10.55;7.75;;;;;;;3.61;92.50;100510.47;7339013;39;20232;31
2024/01/30 05:02:16;;;;;;;10.10;7.73;;;;;;;3.60;92.30;100512.28;7351869;39;20334;31
2024/01/30 05:07:50;;;;;;;10.20;7.87;;;;;;;3.60;94.25;100516.75;7350379;39;20556;31
2024/01/30 05:13:25;;;;;;;12.07;8.40;;;;;;;3.61;92.20;100518.47;7373023;39;20270;31
2024/01/30 05:19:00;;;;;;;12.03;8.73;;;;;;;3.60;93.32;100517.63;7316029;39;20260;31
2024/01/30 05:24:36;;;;;;;14.05;8.80;;;;;;;3.61;91.71;100524.66;7345490;39;20347;31
2024/01/30 05:29:56;;;;;;;12.00;9.03;;;;;;;3.61;91.88;100523.81;7237530;40;20270;31
2024/01/30 05:35:17;;;;;;;11.80;9.57;;;;;;;3.61;92.35;100531.81;7263438;39;20389;31
2024/01/30 05:40:52;;;;;;;12.90;9.27;;;;;;;3.55;91.14;100529.53;7277900;40;20238;31
2024/01/30 05:46:11;;;;;;;11.30;8.80;;;;;;;3.51;91.79;100542.13;7214371;40;20246;31
2024/01/30 05:51:32;;;;;;;11.80;8.93;;;;;;;3.46;91.57;100546.03;7247834;40;20342;31
2024/01/30 05:57:09;;;;;;;11.83;7.67;;;;;;;3.31;90.93;100539.78;7277634;40;20254;31
2024/01/30 06:07:45;;;;;;;8.70;6.15;;;;;;;3.28;91.61;100547.97;7286725;39;21448;31
2024/01/30 06:13:19;;;;;;;9.40;6.10;;;;;;;3.18;90.27;100544.09;7305768;39;20353;31
2024/01/30 06:18:54;;;;;;;8.45;5.40;;;;;;;3.12;90.74;100536.44;7330881;39;20275;31
2024/01/30 06:24:15;;;;;;;7.00;4.97;;;;;;;3.12;91.29;100537.28;7256663;39;20242;31
2024/01/30 06:29:50;;;;;;;6.10;4.70;;;;;;;2.99;90.45;100541.59;7278817;39;20248;31
2024/01/30 06:35:24;;;;;;;6.53;4.50;;;;;;;3.04;90.77;100552.00;7308955;39;20256;31
2024/01/30 06:40:45;;;;;;;5.33;4.30;;;;;;;3.13;90.46;100554.12;7286614;39;20237;31
2024/01/30 06:46:21;;;;;;;5.50;4.20;;;;;;;3.09;90.35;100534.81;7296484;39;20257;31
2024/01/30 06:56:43;;;;;;;6.30;4.65;;;;;;;3.04;90.52;100552.84;7292279;39;21369;31
2024/01/30 07:02:19;;;;;;;7.00;5.20;;;;;;;2.92;90.46;100537.56;7327236;39;20427;31
2024/01/30 07:07:37;;;;;;;7.03;5.37;;;;;;;2.88;91.17;100548.47;7332892;39;20234;31
2024/01/30 07:12:55;;;;;;;7.03;5.20;;;;;;;2.77;90.27;100550.84;7340903;39;20337;31
2024/01/30 07:18:31;;;;;;;9.05;6.60;;;;;;;2.62;90.61;100556.09;7335433;39;20263;31
2024/01/30 07:24:03;;;;;;;7.18;5.43;;;;;;;2.61;91.14;100551.69;7334685;39;20499;31
2024/01/30 07:29:24;;;;;;;5.83;4.73;;;;;;;2.62;92.08;100549.91;7297553;39;20241;31
2024/01/30 07:35:01;;;;;;;11.10;5.70;;;;;;;2.63;92.41;100554.28;7237309;40;20312;31
2024/01/30 07:40:18;;;;;;;7.13;5.10;;;;;;;2.70;92.93;100558.31;7274463;40;20261;31
2024/01/30 07:45:53;;;;;;;5.13;4.40;;;;;;;2.80;92.52;100562.22;7261501;39;20273;31
2024/01/30 07:51:32;;;;;;;6.10;4.75;;;;;;;2.97;92.21;100558.63;7266963;39;20257;31
2024/01/30 07:57:06;;;;;;;7.40;5.55;;;;;;;3.08;92.65;100562.37;7283703;39;21429;31
2024/01/30 08:02:25;;;;;;;6.87;6.17;;;;;;;3.23;92.21;100566.00;7309884;39;20411;31
2024/01/30 08:08:02;;;;;;;6.10;5.37;;;;;;;3.31;92.74;100570.88;7287704;40;21272;31
2024/01/30 08:13:36;;;;;;;5.50;4.87;;;;;;;3.39;92.89;100568.63;7249667;40;20322;31
2024/01/30 08:18:57;;;;;;;5.90;4.67;;;;;;;3.53;93.79;100572.25;7228115;40;20294;31
2024/01/30 08:24:33;;;;;;;6.77;5.20;;;;;;;3.66;93.47;100571.53;7240288;39;20283;31
2024/01/30 08:30:08;;;;;;;6.50;4.75;;;;;;;3.75;92.38;100573.66;7222484;40;20288;31
2024/01/30 08:40:45;;;;;;;7.30;5.55;;;;;;;3.99;92.92;100575.72;7266526;40;21807;31
2024/01/30 08:51:24;;;;;;;10.40;5.87;;;;;;;4.38;93.25;100566.28;7324596;39;20268;31
2024/01/30 08:57:00;;;;;;;7.80;4.90;;;;;;;4.48;93.21;100567.41;7256480;40;20301;31
2024/01/30 09:07:36;;;;;;;6.70;5.00;;;;;;;5.03;92.60;100567.50;7297982;39;21317;31
2024/01/30 09:13:12;;;;;;;5.78;3.92;;;;;;;5.23;92.00;100567.06;7314406;39;21264;31
2024/01/30 09:23:33;;;;;;;5.20;4.23;;;;;;;5.47;91.38;100569.97;7277033;40;21223;31
2024/01/30 09:29:09;;;;;;;4.77;3.70;;;;;;;5.67;91.80;100572.16;7259566;39;20408;31
2024/01/30 09:34:44;;;;;;;16.57;9.57;;;;;;;5.76;92.13;100571.56;7337099;39;20267;31
2024/01/30 09:40:05;;;;;;;9.17;6.03;;;;;;;6.11;91.71;100579.06;7359569;39;20342;31
2024/01/30 09:45:40;;;;;;;6.43;4.60;;;;;;;6.27;91.54;100574.41;7339787;39;21217;31
2024/01/30 09:51:15;;;;;;;7.35;4.55;;;;;;;6.38;91.19;100573.63;7232173;40;20238;31
2024/01/30 09:56:51;;;;;;;9.30;4.83;;;;;;;6.57;90.88;100592.81;7241713;40;20479;31
2024/01/30 10:02:28;;;;;;;6.57;4.87;;;;;;;6.56;91.36;100591.97;7250968;40;20246;31
2024/01/30 10:08:07;;;;;;;6.87;4.47;;;;;;;6.64;91.08;100591.41;7190689;40;20348;31
2024/01/30 10:13:27;;;;;;;7.40;4.30;;;;;;;6.70;91.42;100585.66;7214593;40;20300;31
2024/01/30 10:19:03;;;;;;;6.78;4.92;;;;;;;6.78;91.38;100583.28;7270231;39;21359;31
2024/01/30 10:24:40;;;;;;;6.90;5.50;;;;;;;6.88;91.17;100588.84;7216317;40;20250;31
2024/01/30 10:30:00;;;;;;;6.90;5.05;;;;;;;6.97;90.19;100597.09;7222706;40;20256;31
2024/01/30 10:35:36;;;;;;;7.37;5.17;;;;;;;7.06;90.91;100582.19;7265451;39;20398;31
2024/01/30 10:41:13;;;;;;;7.43;5.00;;;;;;;7.18;90.12;100589.31;7272895;39;20259;31
2024/01/30 10:46:46;;;;;;;6.80;5.30;;;;;;;7.24;89.22;100589.72;7311921;39;20255;31
2024/01/30 10:52:23;;;;;;;6.37;4.77;;;;;;;7.34;89.63;100584.56;7280721;39;20256;31
2024/01/30 10:57:58;;;;;;;6.45;5.50;;;;;;;7.44;89.02;100584.75;7304615;39;20252;31
2024/01/30 11:03:36;;;;;;;6.80;5.50;;;;;;;7.45;88.79;100579.28;7273510;39;20273;31
2024/01/30 11:09:19;;;;;;;15.00;10.57;;;;;;;7.55;90.36;100568.69;7108438;39;20404;31
2024/01/30 11:14:55;;;;;;;10.37;6.90;;;;;;;7.64;88.81;100584.09;7300489;39;20249;31
2024/01/30 11:20:31;;;;;;;10.25;6.35;;;;;;;7.71;89.12;100585.38;7246300;39;20303;31
2024/01/30 11:26:09;;;;;;;32.30;15.80;;;;;;;7.77;88.73;100578.72;7252167;39;20272;31
2024/01/30 11:31:29;;;;;;;12.00;8.63;;;;;;;7.82;88.72;100569.31;7263626;40;20268;31
2024/01/30 11:42:09;;;;;;;7.55;6.00;;;;;;;8.03;88.03;100566.88;7394612;39;20707;31
2024/01/30 11:47:44;;;;;;;7.00;5.80;;;;;;;8.16;87.73;100548.84;7375876;39;20389;31
2024/01/30 11:58:25;;;;;;;7.95;5.80;;;;;;;8.27;87.16;100532.72;7318222;39;20751;31
2024/01/30 12:04:08;;;;;;;7.77;6.30;;;;;;;8.29;87.02;100540.69;7283963;39;20415;31
2024/01/30 12:09:27;;;;;;;8.93;6.07;;;;;;;8.35;86.50;100540.22;7337906;39;20258;31
2024/01/30 12:14:58;;;;;;;11.60;6.65;;;;;;;8.37;87.10;100532.91;7319927;39;20492;31
2024/01/30 12:20:45;;;;;;;8.20;6.95;;;;;;;8.40;86.58;100533.53;7327261;39;21246;31
2024/01/30 12:26:21;;;;;;;7.40;6.60;;;;;;;8.49;86.27;100537.31;7267746;40;20374;31
2024/01/30 12:31:58;;;;;;;8.70;6.45;;;;;;;8.58;86.10;100515.97;7197566;40;20358;31
2024/01/30 12:37:30;;;;;;;9.13;6.03;;;;;;;8.72;85.98;100519.38;7231887;40;21324;31
2024/01/30 12:43:06;;;;;;;11.30;6.47;;;;;;;8.77;85.69;100515.34;7247713;40;20256;31
2024/01/30 12:48:42;;;;;;;9.33;6.20;;;;;;;8.79;85.77;100513.38;7228652;40;20246;31
2024/01/30 12:54:19;;;;;;;8.00;5.50;;;;;;;8.87;85.97;100520.81;7257226;39;20659;31
2024/01/30 12:59:51;;;;;;;6.87;5.50;;;;;;;8.89;86.11;100519.75;7226596;40;21464;31
2024/01/30 13:05:29;;;;;;;7.50;5.40;;;;;;;9.00;85.80;100513.47;7268873;39;20244;31
2024/01/30 13:10:50;;;;;;;6.55;5.50;;;;;;;9.08;86.26;100523.62;7279170;40;20341;31
2024/01/30 13:21:31;;;;;;;5.87;4.13;;;;;;;9.40;86.28;100520.00;7326897;39;20275;31
2024/01/30 13:27:08;;;;;;;4.10;3.55;;;;;;;9.62;85.72;100510.12;7277980;40;20257;31
2024/01/30 13:32:29;;;;;;;9.07;5.90;;;;;;;9.64;85.66;100519.81;7253293;39;20265;31
2024/01/30 13:43:06;;;;;;;10.65;6.10;;;;;;;9.56;85.12;100507.97;7298701;39;21251;31
2024/01/30 13:48:41;;;;;;;9.25;7.20;;;;;;;9.50;85.40;100515.56;7291646;39;20269;31
2024/01/30 13:54:02;;;;;;;12.30;8.40;;;;;;;9.40;85.96;100519.13;7318559;39;20308;31
2024/01/30 13:59:34;;;;;;;9.40;7.40;;;;;;;9.32;86.23;100517.09;7308953;39;21212;31
2024/01/30 14:05:09;;;;;;;11.80;8.00;;;;;;;9.27;86.50;100511.22;7266686;39;20358;31
2024/01/30 14:10:30;;;;;;;8.65;7.40;;;;;;;9.29;86.37;100517.34;7279497;39;20260;31
2024/01/30 14:16:05;;;;;;;9.23;7.47;;;;;;;9.26;86.68;100514.06;7289459;39;20396;31
2024/01/30 14:21:23;;;;;;;10.90;7.40;;;;;;;9.29;87.10;100514.66;7329223;39;21754;31
2024/01/30 14:26:59;;;;;;;12.67;8.33;;;;;;;9.26;87.28;100511.37;7345695;39;20254;31
2024/01/30 14:32:32;;;;;;;11.87;9.27;;;;;;;9.23;87.18;100519.69;7343410;39;20252;31
2024/01/30 14:37:54;;;;;;;11.93;9.80;;;;;;;9.17;87.38;100518.34;7310713;39;20237;31
2024/01/30 14:43:11;;;;;;;14.10;10.80;;;;;;;9.14;87.97;100523.12;7307964;39;20587;31
2024/01/30 14:48:47;;;;;;;13.45;10.10;;;;;;;9.08;88.04;100513.72;7317837;39;20276;31
2024/01/30 14:54:07;;;;;;;13.00;9.30;;;;;;;9.10;88.38;100522.50;7325484;39;20389;31
2024/01/30 14:59:42;;;;;;;18.30;11.70;;;;;;;9.04;88.23;100528.37;7338857;39;20367;31
2024/01/30 15:05:19;;;;;;;16.26;12.14;;;;;;;9.02;88.13;100520.47;7267759;40;20408;31
2024/01/30 15:10:52;;;;;;;17.30;12.80;;;;;;;9.00;88.35;100526.91;7251465;40;20252;31
2024/01/30 15:16:28;;;;;;;15.20;11.45;;;;;;;8.93;88.27;100531.94;7198481;40;21396;31
2024/01/30 15:22:03;;;;;;;13.00;11.20;;;;;;;8.90;88.15;100547.47;7232773;40;20319;31
2024/01/30 15:27:38;;;;;;;14.10;10.87;;;;;;;8.88;88.29;100546.75;7284744;40;20384;31
2024/01/30 15:32:59;;;;;;;14.97;10.90;;;;;;;8.89;87.97;100556.53;7257551;40;20315;31
2024/01/30 15:38:35;;;;;;;12.26;9.66;;;;;;;8.82;87.83;100550.75;7310181;39;20232;31
2024/01/30 15:44:10;;;;;;;12.20;9.20;;;;;;;8.76;87.97;100551.28;7318693;39;20305;31
2024/01/30 15:49:27;;;;;;;12.30;9.00;;;;;;;8.78;88.69;100548.44;7295322;39;21191;31
2024/01/30 15:55:03;;;;;;;13.73;9.77;;;;;;;8.74;87.70;100558.59;7330501;39;21121;31
2024/01/30 16:00:38;;;;;;;13.00;9.10;;;;;;;8.73;87.86;100570.31;7246915;40;20268;31
2024/01/30 16:05:58;;;;;;;12.83;9.30;;;;;;;8.72;88.24;100576.69;7320467;39;20230;31
2024/01/30 16:11:35;;;;;;;13.60;9.60;;;;;;;8.72;88.14;100590.13;7305816;39;20332;31
2024/01/30 16:17:11;;;;;;;13.53;8.43;;;;;;;8.73;88.42;100593.66;7297791;39;20245;31
2024/01/30 16:22:46;;;;;;;12.00;8.47;;;;;;;8.78;89.24;100592.31;7283393;39;20252;31
2024/01/30 16:28:23;;;;;;;25.30;16.00;;;;;;;8.82;89.89;100596.47;7228848;40;20245;31
2024/01/30 16:33:43;;;;;;;15.40;10.40;;;;;;;8.81;90.43;100591.22;7218279;40;20269;31
2024/01/30 16:39:03;;;;;;;17.50;11.30;;;;;;;8.78;90.66;100599.50;7238770;40;20251;31
2024/01/30 16:44:37;;;;;;;30.70;19.20;;;;;;;8.73;90.69;100601.72;7232387;40;20440;31
2024/01/30 16:55:02;;;;;;;14.75;11.20;;;;;;;8.70;90.74;100615.41;7268398;39;20272;31
2024/01/30 17:05:43;;;;;;;16.10;11.30;;;;;;;8.66;91.18;100625.53;7348875;39;21113;31
2024/01/30 17:11:16;;;;;;;13.53;10.83;;;;;;;8.70;90.71;100635.06;7399439;39;20270;31
2024/01/30 17:16:52;;;;;;;11.87;10.07;;;;;;;8.69;91.12;100635.22;7435950;39;20278;31
2024/01/30 17:27:26;;;;;;;14.15;9.35;;;;;;;8.75;91.65;100643.63;7366835;39;21146;31
2024/01/30 17:37:48;;;;;;;44.03;30.27;;;;;;;8.91;92.48;100651.34;7364030;39;21080;31
2024/01/30 17:43:22;;;;;;;57.87;42.83;;;;;;;8.92;92.58;100647.69;7357878;39;20236;31
2024/01/30 17:48:40;;;;;;;21.10;15.50;;;;;;;8.94;93.33;100649.28;7308973;39;20679;31
2024/01/30 17:54:13;;;;;;;10.47;7.87;;;;;;;9.07;94.36;100662.62;7337337;39;21203;31
2024/01/30 17:59:46;;;;;;;18.43;10.77;;;;;;;9.20;93.55;100666.06;7094509;39;21189;31
2024/01/30 18:05:22;;;;;;;15.30;9.90;;;;;;;9.20;93.31;100674.13;7246474;40;20330;31
2024/01/30 18:10:57;;;;;;;18.40;11.67;;;;;;;9.23;93.93;100670.31;7257049;40;20357;31
2024/01/30 18:16:32;;;;;;;15.70;10.20;;;;;;;9.23;93.58;100681.09;7241298;40;20241;31
2024/01/30 18:21:51;;;;;;;18.00;10.75;;;;;;;9.23;93.87;100678.41;7247142;40;20334;31
2024/01/30 18:32:30;;;;;;;11.30;8.50;;;;;;;9.20;93.65;100679.50;7314139;39;20276;31
2024/01/30 18:43:10;;;;;;;10.37;6.73;;;;;;;9.26;93.40;100688.94;7303491;39;20875;31
2024/01/30 18:53:50;;;;;;;9.02;6.53;;;;;;;9.31;93.52;100690.25;7311455;39;22380;31
2024/01/30 18:59:25;;;;;;;9.80;6.40;;;;;;;9.34;93.90;100691.88;7319140;39;20240;31
2024/01/30 19:04:58;;;;;;;8.47;6.17;;;;;;;9.37;93.85;100691.63;7291201;39;21365;31
2024/01/30 19:10:31;;;;;;;10.97;6.77;;;;;;;9.42;93.30;100700.19;7255840;40;20277;31
2024/01/30 19:20:53;;;;;;;8.90;6.40;;;;;;;9.48;94.04;100705.06;7295558;39;20264;31
2024/01/30 19:26:27;;;;;;;8.80;7.10;;;;;;;9.43;93.05;100709.97;7297324;39;21138;31
2024/01/30 19:36:49;;;;;;;9.66;5.88;;;;;;;9.47;94.17;100715.00;7380007;39;21465;31
2024/01/30 19:42:09;;;;;;;9.65;6.30;;;;;;;9.49;93.89;100729.16;7360227;39;20239;31
2024/01/30 19:47:45;;;;;;;17.45;10.45;;;;;;;9.56;93.46;100734.94;7333479;39;20539;31
2024/01/30 19:53:21;;;;;;;11.23;8.17;;;;;;;9.60;93.47;100732.84;7299351;40;20397;31
2024/01/30 19:58:56;;;;;;;13.65;9.70;;;;;;;9.64;93.93;100739.69;7317912;39;20245;31
2024/01/30 20:04:33;;;;;;;11.80;8.90;;;;;;;9.60;93.44;100735.53;7254166;39;20410;31
2024/01/30 20:15:14;;;;;;;8.00;6.30;;;;;;;9.59;93.52;100733.81;7252888;40;20573;31
2024/01/30 20:20:47;;;;;;;10.87;7.10;;;;;;;9.59;93.61;100740.06;7271692;39;20368;31
2024/01/30 20:26:22;;;;;;;11.50;7.93;;;;;;;9.62;93.95;100745.19;7262825;40;20268;31
2024/01/30 20:31:43;;;;;;;12.43;8.70;;;;;;;9.66;93.25;100757.44;7259569;40;20245;31
2024/01/30 20:37:15;;;;;;;13.80;7.40;;;;;;;9.59;93.04;100753.53;7218001;40;20313;31
2024/01/30 20:42:50;;;;;;;10.18;7.28;;;;;;;9.58;93.67;100759.88;7271258;39;20241;31
2024/01/30 20:48:12;;;;;;;11.20;8.00;;;;;;;9.61;93.68;100756.94;7272666;39;20249;31
2024/01/30 20:53:48;;;;;;;11.20;8.20;;;;;;;9.58;93.40;100753.62;7297455;39;20237;31
2024/01/30 20:59:23;;;;;;;12.70;7.60;;;;;;;9.60;93.39;100755.25;7287900;40;20256;31
2024/01/30 21:04:43;;;;;;;10.60;6.80;;;;;;;9.60;93.61;100755.25;7311839;39;20226;31
2024/01/30 21:10:16;;;;;;;9.43;6.70;;;;;;;9.57;93.78;100752.78;7287660;39;20368;31
2024/01/30 21:15:51;;;;;;;10.70;6.55;;;;;;;9.60;93.84;100763.31;7266726;39;20335;31
2024/01/30 21:21:12;;;;;;;12.30;7.20;;;;;;;9.62;93.17;100764.03;7327588;39;20244;31
2024/01/30 21:26:43;;;;;;;13.30;7.00;;;;;;;9.58;93.35;100767.94;7312590;39;20336;31
2024/01/30 21:32:05;;;;;;;12.67;7.77;;;;;;;9.57;93.65;100771.63;7271848;39;20378;31
2024/01/30 21:37:40;;;;;;;9.43;6.97;;;;;;;9.52;93.79;100753.13;7285332;39;20240;31
2024/01/30 21:43:16;;;;;;;12.03;8.27;;;;;;;9.52;94.07;100756.81;7276765;40;20238;31
2024/01/30 21:48:51;;;;;;;23.38;15.25;;;;;;;9.52;93.73;100760.38;7246920;39;20258;31
2024/01/30 21:54:11;;;;;;;14.53;10.57;;;;;;;9.53;93.89;100767.44;7257676;40;20288;31
2024/01/30 21:59:45;;;;;;;110.47;77.73;;;;;;;9.50;93.67;100757.81;7305782;39;21442;31
2024/01/30 22:05:02;;;;;;;22.00;14.33;;;;;;;9.52;94.10;100760.38;7298145;39;20553;31
2024/01/30 22:10:35;;;;;;;18.67;11.90;;;;;;;9.48;93.82;100765.13;7343578;39;20396;31
2024/01/30 22:16:09;;;;;;;16.83;9.70;;;;;;;9.42;93.95;100768.31;7308535;39;20277;31
2024/01/30 22:21:41;;;;;;;15.85;10.85;;;;;;;9.40;94.24;100766.72;7313795;39;20549;31
2024/01/30 22:27:01;;;;;;;13.37;9.73;;;;;;;9.43;94.86;100775.38;7296294;40;20292;31
2024/01/30 22:32:38;;;;;;;16.93;10.90;;;;;;;9.38;94.26;100771.38;7300982;39;20251;31
2024/01/30 22:38:10;;;;;;;13.67;9.20;;;;;;;9.37;94.41;100777.72;7267344;39;20319;31
2024/01/30 22:43:45;;;;;;;26.10;18.17;;;;;;;9.38;94.08;100780.31;7297987;39;20260;31
2024/01/30 22:49:21;;;;;;;18.90;16.27;;;;;;;9.34;94.83;100786.03;7287901;39;20256;31
2024/01/30 22:54:41;;;;;;;16.47;12.60;;;;;;;9.38;94.79;100790.22;7287645;39;20276;31
2024/01/30 23:00:07;;;;;;;12.90;9.10;;;;;;;9.44;94.72;100782.50;7292891;39;20255;31
2024/01/30 23:05:35;;;;;;;18.00;12.35;;;;;;;9.43;94.63;100786.16;7327506;39;20470;31
2024/01/30 23:10:55;;;;;;;12.80;10.17;;;;;;;9.47;94.37;100797.56;7272060;39;20259;31
2024/01/30 23:16:31;;;;;;;12.35;9.10;;;;;;;9.42;94.08;100800.63;7275193;40;20252;31
2024/01/30 23:22:07;;;;;;;13.23;9.07;;;;;;;9.32;94.48;100804.13;7247009;40;20313;31
2024/01/30 23:27:27;;;;;;;12.53;8.73;;;;;;;9.34;94.92;100805.75;7263571;39;20330;31
2024/01/30 23:38:03;;;;;;;11.50;8.00;;;;;;;9.30;94.86;100809.63;7316235;39;20655;31
2024/01/30 23:43:23;;;;;;;16.10;8.70;;;;;;;9.33;95.31;100805.84;7352492;39;20325;31
2024/01/30 23:48:43;;;;;;;12.30;9.00;;;;;;;9.34;94.83;100802.19;7385617;39;20386;31
2024/01/30 23:54:18;;;;;;;13.53;8.93;;;;;;;9.34;94.99;100794.97;7377931;39;20255;31
2024/01/30 23:59:55;;;;;;;12.65;8.20;;;;;;;9.34;95.17;100797.66;7317239;39;20284;31
